createdAt,value
2022-11-28T00:01:27.134Z,33.25
2022-11-28T00:03:54.361Z,31.98
2022-11-28T00:06:22.789Z,28.83
2022-11-28T00:08:49.935Z,30.20
2022-11-28T00:11:18.336Z,30.55
2022-11-28T00:13:46.388Z,32.42
2022-11-28T00:16:21.833Z,30.60
2022-11-28T00:18:54.249Z,30.73
2022-11-28T00:21:22.256Z,33.45
2022-11-28T00:23:50.058Z,32.75
2022-11-28T00:26:22.736Z,31.00
2022-11-28T00:28:50.521Z,29.25
2022-11-28T00:31:21.330Z,30.83
2022-11-28T00:33:48.794Z,28.70
2022-11-28T00:36:16.345Z,31.45
2022-11-28T00:38:43.517Z,32.60
2022-11-28T00:41:14.359Z,29.80
2022-11-28T00:43:43.031Z,32.75
2022-11-28T00:46:11.457Z,31.20
2022-11-28T00:48:38.736Z,29.23
2022-11-28T00:51:14.344Z,26.02
2022-11-28T00:53:42.970Z,27.33
2022-11-28T00:56:12.573Z,25.25
2022-11-28T00:58:40.618Z,32.40
2022-11-28T01:01:17.756Z,32.63
2022-11-28T01:03:45.310Z,28.00
2022-11-28T01:06:13.243Z,24.48
2022-11-28T01:08:40.216Z,22.75
2022-11-28T01:11:13.254Z,22.20
2022-11-28T01:13:41.119Z,29.30
2022-11-28T01:16:09.037Z,28.08
2022-11-28T01:18:36.924Z,25.70
2022-11-28T01:21:04.976Z,27.60
2022-11-28T01:23:32.032Z,26.83
2022-11-28T01:25:59.274Z,29.05
2022-11-28T01:28:26.271Z,31.20
2022-11-28T01:30:53.184Z,27.65
2022-11-28T01:33:20.182Z,23.17
2022-11-28T01:35:58.112Z,23.33
2022-11-28T01:38:25.954Z,26.05
2022-11-28T01:40:53.192Z,27.85
2022-11-28T01:43:20.967Z,26.58
2022-11-28T01:45:48.056Z,24.98
2022-11-28T01:48:27.863Z,22.02
2022-11-28T01:50:59.205Z,27.48
2022-11-28T01:53:30.696Z,21.92
2022-11-28T01:56:07.917Z,27.30
2022-11-28T01:58:39.658Z,20.23
2022-11-28T02:01:07.887Z,23.90
2022-11-28T02:03:43.371Z,21.58
2022-11-28T02:06:11.568Z,21.70
2022-11-28T02:08:38.610Z,17.65
2022-11-28T02:11:32.057Z,17.48
2022-11-28T02:14:20.802Z,21.95
2022-11-28T02:16:59.455Z,21.15
2022-11-28T02:19:48.619Z,19.65
2022-11-28T02:22:45.101Z,20.52
2022-11-28T02:25:36.519Z,18.73
2022-11-28T02:28:29.901Z,17.35
2022-11-28T02:31:16.468Z,20.13
2022-11-28T02:33:53.917Z,17.60
2022-11-28T02:36:40.632Z,19.92
2022-11-28T02:39:36.747Z,15.02
2022-11-28T02:42:22.790Z,19.77
2022-11-28T02:45:03.855Z,15.45
2022-11-28T02:47:34.103Z,17.55
2022-11-28T02:50:12.482Z,17.17
2022-11-28T02:52:50.965Z,16.63
2022-11-28T02:55:18.746Z,18.05
2022-11-28T02:57:51.418Z,17.02
2022-11-28T03:00:39.852Z,16.00
2022-11-28T03:03:09.595Z,19.05
2022-11-28T03:05:42.703Z,20.30
2022-11-28T03:08:15.211Z,21.95
2022-11-28T03:11:02.534Z,20.40
2022-11-28T03:13:49.622Z,19.45
2022-11-28T03:16:36.006Z,17.70
2022-11-28T03:19:29.942Z,17.83
2022-11-28T03:22:15.249Z,18.00
2022-11-28T03:24:58.352Z,18.77
2022-11-28T03:27:42.957Z,24.08
2022-11-28T03:30:19.748Z,17.10
2022-11-28T03:32:50.265Z,22.48
2022-11-28T03:35:20.646Z,23.33
2022-11-28T03:37:55.848Z,16.58
2022-11-28T03:40:27.809Z,20.00
2022-11-28T03:43:00.662Z,20.95
2022-11-28T03:45:35.330Z,22.65
2022-11-28T03:48:08.850Z,18.35
2022-11-28T03:50:47.377Z,17.75
2022-11-28T03:53:20.316Z,19.77
2022-11-28T03:56:00.439Z,14.27
2022-11-28T03:58:34.255Z,20.55
2022-11-28T04:01:22.523Z,17.85
2022-11-28T04:04:16.157Z,17.25
2022-11-28T04:07:24.467Z,14.85
2022-11-28T04:10:00.369Z,17.30
2022-11-28T04:12:40.017Z,18.10
2022-11-28T04:15:14.118Z,14.73
2022-11-28T04:17:58.766Z,18.20
2022-11-28T04:20:59.086Z,21.35
2022-11-28T04:23:27.378Z,18.48
2022-11-28T04:26:12.856Z,20.35
2022-11-28T04:28:41.273Z,17.38
2022-11-28T04:31:10.011Z,18.20
2022-11-28T04:33:43.191Z,17.40
2022-11-28T04:36:12.535Z,14.63
2022-11-28T04:38:42.523Z,14.23
2022-11-28T04:41:18.404Z,15.27
2022-11-28T04:43:57.648Z,15.68
2022-11-28T04:46:34.003Z,14.40
2022-11-28T04:49:01.135Z,23.92
2022-11-28T04:51:31.270Z,16.00
2022-11-28T04:54:17.528Z,17.45
2022-11-28T04:57:09.609Z,14.02
2022-11-28T04:59:36.934Z,14.15
2022-11-28T05:02:05.784Z,16.80
2022-11-28T05:04:38.582Z,14.23
2022-11-28T05:07:08.591Z,14.70
2022-11-28T05:09:36.616Z,11.32
2022-11-28T05:12:04.439Z,13.57
2022-11-28T05:14:31.426Z,14.77
2022-11-28T05:16:58.356Z,15.07
2022-11-28T05:19:25.416Z,14.68
2022-11-28T05:21:53.643Z,12.40
2022-11-28T05:24:22.375Z,13.88
2022-11-28T05:26:49.929Z,16.35
2022-11-28T05:29:17.052Z,17.67
2022-11-28T05:31:44.165Z,17.27
2022-11-28T05:34:11.136Z,13.77
2022-11-28T05:36:38.163Z,12.90
2022-11-28T05:39:05.150Z,13.85
2022-11-28T05:41:33.538Z,15.88
2022-11-28T05:44:01.236Z,12.07
2022-11-28T05:46:29.778Z,12.98
2022-11-28T05:48:57.106Z,18.88
2022-11-28T05:51:24.500Z,15.80
2022-11-28T05:53:51.647Z,10.75
2022-11-28T05:56:20.625Z,14.30
2022-11-28T05:58:47.593Z,14.20
2022-11-28T06:01:18.410Z,16.40
2022-11-28T06:03:45.897Z,10.55
2022-11-28T06:06:22.087Z,13.80
2022-11-28T06:08:51.642Z,10.65
2022-11-28T06:11:20.666Z,12.80
2022-11-28T06:13:49.488Z,14.25
2022-11-28T06:16:20.066Z,14.32
2022-11-28T06:18:47.368Z,13.02
2022-11-28T06:21:16.015Z,10.75
2022-11-28T06:23:43.090Z,11.95
2022-11-28T06:26:13.131Z,11.68
2022-11-28T06:28:41.192Z,11.63
2022-11-28T06:31:25.947Z,11.10
2022-11-28T06:33:52.967Z,10.50
2022-11-28T06:36:21.130Z,10.88
2022-11-28T06:38:48.682Z,11.73
2022-11-28T06:41:18.021Z,15.52
2022-11-28T06:43:45.123Z,13.75
2022-11-28T06:46:17.642Z,11.15
2022-11-28T06:48:45.792Z,12.68
2022-11-28T06:51:14.316Z,12.73
2022-11-28T06:53:41.778Z,12.68
2022-11-28T06:56:11.986Z,17.88
2022-11-28T06:58:38.962Z,11.90
2022-11-28T07:01:12.523Z,9.55
2022-11-28T07:03:40.213Z,11.80
2022-11-28T07:06:08.321Z,13.25
2022-11-28T07:08:36.102Z,13.38
2022-11-28T07:11:16.817Z,12.48
2022-11-28T07:13:47.869Z,15.90
2022-11-28T07:16:26.748Z,12.45
2022-11-28T07:18:54.703Z,11.25
2022-11-28T07:21:21.816Z,11.77
2022-11-28T07:23:49.185Z,13.85
2022-11-28T07:26:19.695Z,17.40
2022-11-28T07:28:47.488Z,13.15
2022-11-28T07:31:17.672Z,12.00
2022-11-28T07:33:46.927Z,14.75
2022-11-28T07:36:19.516Z,15.25
2022-11-28T07:38:48.684Z,17.42
2022-11-28T07:41:15.783Z,13.77
2022-11-28T07:43:44.711Z,13.73
2022-11-28T07:46:15.118Z,15.30
2022-11-28T07:48:42.679Z,19.20
2022-11-28T07:51:12.763Z,15.60
2022-11-28T07:53:40.850Z,17.40
2022-11-28T07:56:13.099Z,12.93
2022-11-28T07:58:40.144Z,14.98
2022-11-28T08:01:15.622Z,14.95
2022-11-28T08:03:45.189Z,16.23
2022-11-28T08:06:14.763Z,15.77
2022-11-28T08:08:41.756Z,16.13
2022-11-28T08:11:10.199Z,18.10
2022-11-28T08:13:38.252Z,15.00
2022-11-28T08:16:10.330Z,11.40
2022-11-28T08:18:37.587Z,13.05
2022-11-28T08:21:14.357Z,16.63
2022-11-28T08:23:42.118Z,16.08
2022-11-28T08:26:10.914Z,14.20
2022-11-28T08:28:38.054Z,15.75
2022-11-28T08:31:13.652Z,14.57
2022-11-28T08:33:41.863Z,13.48
2022-11-28T08:36:11.266Z,17.63
2022-11-28T08:38:39.436Z,14.63
2022-11-28T08:41:10.033Z,13.25
2022-11-28T08:43:38.344Z,12.02
2022-11-28T08:46:07.154Z,12.15
2022-11-28T08:48:35.963Z,17.98
2022-11-28T08:51:03.568Z,13.70
2022-11-28T08:53:31.104Z,16.60
2022-11-28T08:55:58.187Z,14.10
2022-11-28T08:58:25.264Z,13.30
2022-11-28T09:00:52.479Z,13.40
2022-11-28T09:03:20.738Z,15.63
2022-11-28T09:05:48.378Z,14.50
2022-11-28T09:08:16.979Z,19.02
2022-11-28T09:10:45.440Z,15.10
2022-11-28T09:13:15.095Z,13.05
2022-11-28T09:15:43.783Z,18.23
2022-11-28T09:18:13.166Z,15.68
2022-11-28T09:20:40.683Z,15.48
2022-11-28T09:23:08.925Z,12.07
2022-11-28T09:25:36.921Z,13.77
2022-11-28T09:28:07.265Z,13.10
2022-11-28T09:30:34.812Z,11.98
2022-11-28T09:33:01.925Z,13.75
2022-11-28T09:35:29.068Z,12.27
2022-11-28T09:37:57.320Z,12.80
2022-11-28T09:40:39.347Z,11.48
2022-11-28T09:43:38.249Z,17.80
2022-11-28T09:46:12.209Z,14.18
2022-11-28T09:48:46.091Z,11.35
2022-11-28T09:51:27.797Z,13.07
2022-11-28T09:54:08.278Z,13.07
2022-11-28T09:56:36.129Z,13.15
2022-11-28T09:59:04.357Z,12.20
2022-11-28T10:01:52.648Z,14.55
2022-11-28T10:04:42.901Z,10.73
2022-11-28T10:07:35.686Z,12.88
2022-11-28T10:10:30.386Z,15.77
2022-11-28T10:13:15.253Z,13.13
2022-11-28T10:15:46.276Z,14.38
2022-11-28T10:18:22.247Z,12.93
2022-11-28T10:20:55.032Z,16.27
2022-11-28T10:23:37.248Z,14.02
2022-11-28T10:26:13.776Z,12.85
2022-11-28T10:28:44.171Z,14.82
2022-11-28T10:31:32.496Z,14.10
2022-11-28T10:34:03.019Z,15.45
2022-11-28T10:37:06.986Z,13.70
2022-11-28T10:39:37.696Z,14.63
2022-11-28T10:42:18.586Z,13.80
2022-11-28T10:45:06.921Z,11.23
2022-11-28T10:47:52.455Z,14.40
2022-11-28T10:50:32.470Z,13.73
2022-11-28T10:53:20.225Z,11.15
2022-11-28T10:55:59.124Z,15.27
2022-11-28T10:58:56.233Z,12.60
2022-11-28T11:01:23.575Z,17.75
2022-11-28T11:03:50.715Z,14.18
2022-11-28T11:06:17.714Z,11.35
2022-11-28T11:08:47.825Z,16.08
2022-11-28T11:11:28.928Z,13.70
2022-11-28T11:14:05.936Z,12.63
2022-11-28T11:16:54.362Z,14.48
2022-11-28T11:19:36.927Z,13.00
2022-11-28T11:22:12.921Z,11.25
2022-11-28T11:24:39.958Z,11.98
2022-11-28T11:27:22.925Z,13.85
2022-11-28T11:29:52.074Z,10.52
2022-11-28T11:32:27.737Z,13.70
2022-11-28T11:34:56.650Z,10.15
2022-11-28T11:37:33.829Z,14.45
2022-11-28T11:40:02.952Z,12.25
2022-11-28T11:42:31.876Z,15.32
2022-11-28T11:45:32.673Z,15.20
2022-11-28T11:48:00.644Z,12.10
2022-11-28T11:50:32.056Z,13.85
2022-11-28T11:53:11.329Z,11.48
2022-11-28T11:55:53.932Z,12.02
2022-11-28T11:58:25.635Z,12.25
2022-11-28T12:00:56.320Z,13.90
2022-11-28T12:03:30.014Z,16.52
2022-11-28T12:06:13.629Z,13.88
2022-11-28T12:08:51.521Z,17.55
2022-11-28T12:11:24.281Z,11.63
2022-11-28T12:13:52.107Z,16.52
2022-11-28T12:16:47.843Z,14.90
2022-11-28T12:19:58.145Z,14.68
2022-11-28T12:22:39.668Z,16.20
2022-11-28T12:25:21.976Z,17.35
2022-11-28T12:27:57.047Z,14.48
2022-11-28T12:30:54.049Z,16.33
2022-11-28T12:33:49.837Z,19.77
2022-11-28T12:36:26.883Z,16.02
2022-11-28T12:39:11.522Z,15.20
2022-11-28T12:41:53.237Z,17.38
2022-11-28T12:44:43.270Z,13.00
2022-11-28T12:47:35.791Z,17.77
2022-11-28T12:50:20.951Z,13.57
2022-11-28T12:52:53.783Z,16.02
2022-11-28T12:55:59.424Z,16.20
2022-11-28T12:58:50.887Z,12.38
2022-11-28T13:01:55.457Z,19.17
2022-11-28T13:04:40.699Z,16.35
2022-11-28T13:07:31.900Z,15.60
2022-11-28T13:10:26.257Z,15.02
2022-11-28T13:13:06.149Z,17.02
2022-11-28T13:15:36.318Z,17.27
2022-11-28T13:18:24.754Z,15.50
2022-11-28T13:21:17.854Z,14.25
2022-11-28T13:23:53.736Z,15.55
2022-11-28T13:26:40.290Z,17.65
2022-11-28T13:29:31.936Z,17.70
2022-11-28T13:32:13.317Z,18.58
2022-11-28T13:34:40.945Z,15.73
2022-11-28T13:40:21.487Z,17.77
2022-11-28T13:43:14.705Z,17.73
2022-11-28T13:48:57.605Z,19.02
2022-11-28T13:51:31.122Z,15.18
2022-11-28T13:54:17.916Z,17.05
2022-11-28T13:57:05.047Z,19.13
2022-11-28T13:59:33.353Z,18.50
2022-11-28T14:02:03.455Z,18.58
2022-11-28T14:04:32.862Z,20.92
2022-11-28T14:07:04.672Z,20.52
2022-11-28T14:09:44.867Z,17.92
2022-11-28T14:12:38.344Z,19.65
2022-11-28T14:15:06.552Z,13.32
2022-11-28T14:18:39.104Z,20.23
2022-11-28T14:21:03.234Z,14.27
2022-11-28T14:23:48.513Z,16.88
2022-11-28T14:26:25.608Z,13.63
2022-11-28T14:28:52.858Z,22.20
2022-11-28T14:31:35.095Z,19.23
2022-11-28T14:34:04.937Z,18.42
2022-11-28T14:36:34.933Z,16.73
2022-11-28T14:39:17.001Z,20.85
2022-11-28T14:42:08.515Z,15.52
2022-11-28T14:44:56.214Z,22.10
2022-11-28T14:47:35.787Z,19.73
2022-11-28T14:50:05.756Z,22.33
2022-11-28T14:52:41.328Z,18.48
2022-11-28T14:55:11.887Z,19.10
2022-11-28T14:57:55.018Z,20.02
2022-11-28T15:00:30.774Z,21.40
2022-11-28T15:03:00.612Z,17.58
2022-11-28T15:05:38.082Z,17.63
2022-11-28T15:08:35.965Z,23.67
2022-11-28T15:11:36.556Z,17.20
2022-11-28T15:14:19.333Z,20.88
2022-11-28T15:16:50.459Z,16.65
2022-11-28T15:19:20.666Z,18.35
2022-11-28T15:21:50.391Z,17.80
2022-11-28T15:24:25.133Z,15.13
2022-11-28T15:26:57.377Z,24.45
2022-11-28T15:29:27.761Z,22.42
2022-11-28T15:31:57.333Z,20.45
2022-11-28T15:34:28.543Z,17.92
2022-11-28T15:36:58.207Z,18.63
2022-11-28T15:39:35.097Z,19.75
2022-11-28T15:42:04.795Z,19.35
2022-11-28T15:44:32.517Z,20.38
2022-11-28T15:46:59.838Z,19.63
2022-11-28T15:49:33.454Z,23.77
2022-11-28T15:52:03.873Z,23.25
2022-11-28T15:54:42.529Z,20.00
2022-11-28T15:57:21.486Z,17.70
2022-11-28T15:59:48.478Z,21.58
2022-11-28T16:02:34.219Z,22.83
2022-11-28T16:05:09.010Z,20.10
2022-11-28T16:07:41.356Z,18.75
2022-11-28T16:10:23.696Z,19.15
2022-11-28T16:12:52.295Z,17.73
2022-11-28T16:15:22.422Z,24.15
2022-11-28T16:17:49.980Z,18.52
2022-11-28T16:20:37.544Z,23.73
2022-11-28T16:23:30.822Z,25.98
2022-11-28T16:26:21.492Z,18.73
2022-11-28T16:29:34.524Z,22.70
2022-11-28T16:32:36.544Z,22.10
2022-11-28T16:35:05.517Z,21.63
2022-11-28T16:37:34.088Z,17.10
2022-11-28T16:40:15.711Z,21.90
2022-11-28T16:42:43.683Z,18.65
2022-11-28T16:45:18.922Z,21.15
2022-11-28T16:47:46.415Z,24.38
2022-11-28T16:50:26.086Z,22.42
2022-11-28T16:52:55.359Z,22.48
2022-11-28T16:55:34.912Z,22.77
2022-11-28T16:58:16.172Z,20.38
2022-11-28T17:00:52.415Z,20.83
2022-11-28T17:03:48.555Z,26.77
2022-11-28T17:06:19.610Z,24.55
2022-11-28T17:08:47.426Z,21.60
2022-11-28T17:11:18.835Z,24.88
2022-11-28T17:13:46.532Z,24.00
2022-11-28T17:16:23.116Z,24.77
2022-11-28T17:18:51.575Z,20.48
2022-11-28T17:21:28.421Z,22.52
2022-11-28T17:23:57.027Z,21.23
2022-11-28T17:26:25.297Z,22.33
2022-11-28T17:28:53.264Z,19.85
2022-11-28T17:31:22.812Z,25.63
2022-11-28T17:33:51.671Z,22.85
2022-11-28T17:36:19.885Z,25.00
2022-11-28T17:38:47.982Z,19.90
2022-11-28T17:41:15.586Z,19.35
2022-11-28T17:43:43.415Z,23.02
2022-11-28T17:46:11.850Z,24.45
2022-11-28T17:48:39.962Z,20.63
2022-11-28T17:51:11.453Z,25.83
2022-11-28T17:53:41.226Z,20.35
2022-11-28T17:56:14.533Z,22.77
2022-11-28T17:58:43.619Z,20.33
2022-11-28T18:01:13.141Z,23.55
2022-11-28T18:03:41.072Z,22.63
2022-11-28T18:06:18.333Z,19.65
2022-11-28T18:08:47.342Z,22.02
2022-11-28T18:11:16.453Z,18.05
2022-11-28T18:13:44.711Z,18.65
2022-11-28T18:16:14.028Z,24.00
2022-11-28T18:18:42.054Z,23.45
2022-11-28T18:21:11.190Z,19.15
2022-11-28T18:23:42.267Z,23.60
2022-11-28T18:26:13.548Z,22.40
2022-11-28T18:28:41.637Z,22.95
2022-11-28T18:31:25.543Z,19.70
2022-11-28T18:34:00.221Z,21.95
2022-11-28T18:36:32.349Z,18.15
2022-11-28T18:39:03.285Z,19.55
2022-11-28T18:41:31.785Z,21.10
2022-11-28T18:44:02.421Z,19.40
2022-11-28T18:46:35.091Z,20.52
2022-11-28T18:49:03.445Z,19.92
2022-11-28T18:51:34.616Z,25.17
2022-11-28T18:54:06.423Z,20.77
2022-11-28T18:56:36.380Z,16.98
2022-11-28T18:59:04.883Z,22.90
2022-11-28T19:01:34.723Z,16.95
2022-11-28T19:04:10.073Z,22.15
2022-11-28T19:06:39.980Z,21.67
2022-11-28T19:09:11.485Z,17.77
2022-11-28T19:11:40.814Z,18.33
2022-11-28T19:14:15.565Z,24.67
2022-11-28T19:16:45.581Z,21.02
2022-11-28T19:19:14.332Z,19.60
2022-11-28T19:21:44.005Z,22.02
2022-11-28T19:24:23.525Z,19.85
2022-11-28T19:26:51.199Z,24.52
2022-11-28T19:29:18.460Z,21.58
2022-11-28T19:31:45.753Z,18.98
2022-11-28T19:34:21.030Z,20.67
2022-11-28T19:36:53.032Z,19.95
2022-11-28T19:39:25.673Z,22.27
2022-11-28T19:41:59.084Z,23.17
2022-11-28T19:44:30.642Z,20.05
2022-11-28T19:46:58.896Z,19.42
2022-11-28T19:49:26.749Z,23.13
2022-11-28T19:51:55.246Z,19.48
2022-11-28T19:54:23.239Z,20.83
2022-11-28T19:56:51.578Z,20.73
2022-11-28T19:59:20.111Z,20.20
2022-11-28T20:01:50.087Z,20.70
2022-11-28T20:04:18.210Z,25.90
2022-11-28T20:06:45.872Z,32.90
2022-11-28T20:09:15.101Z,20.63
2022-11-28T20:11:44.275Z,21.95
2022-11-28T20:14:18.828Z,23.63
2022-11-28T20:16:47.035Z,21.92
2022-11-28T20:19:15.698Z,22.30
2022-11-28T20:21:43.929Z,22.58
2022-11-28T20:24:11.813Z,24.23
2022-11-28T20:26:42.557Z,24.60
2022-11-28T20:29:14.256Z,19.65
2022-11-28T20:31:47.290Z,23.08
2022-11-28T20:34:16.327Z,26.67
2022-11-28T20:36:45.613Z,21.35
2022-11-28T20:39:15.171Z,22.75
2022-11-28T20:41:44.068Z,26.20
2022-11-28T20:44:12.982Z,23.25
2022-11-28T20:46:40.552Z,24.17
2022-11-28T20:49:08.248Z,28.08
2022-11-28T20:51:36.957Z,27.30
2022-11-28T20:54:06.817Z,25.85
2022-11-28T20:57:12.977Z,27.48
2022-11-28T20:59:27.846Z,28.73
2022-11-28T21:01:55.514Z,25.75
2022-11-28T21:04:24.533Z,24.42
2022-11-28T21:06:52.207Z,26.00
2022-11-28T21:09:20.693Z,27.73
2022-11-28T21:11:58.722Z,27.40
2022-11-28T21:14:28.474Z,25.25
2022-11-28T21:16:57.057Z,25.38
2022-11-28T21:19:24.449Z,23.73
2022-11-28T21:21:51.854Z,27.95
2022-11-28T21:24:19.408Z,26.70
2022-11-28T21:26:51.369Z,27.33
2022-11-28T21:29:21.680Z,24.38
2022-11-28T21:31:49.468Z,23.00
2022-11-28T21:34:17.843Z,24.65
2022-11-28T21:36:45.521Z,25.05
2022-11-28T21:39:15.305Z,24.70
2022-11-28T21:41:42.731Z,26.85
2022-11-28T21:44:09.905Z,32.50
2022-11-28T21:46:37.128Z,27.23
2022-11-28T21:49:04.273Z,25.30
2022-11-28T21:51:31.312Z,28.27
2022-11-28T21:53:58.786Z,26.33
2022-11-28T21:56:26.140Z,25.63
2022-11-28T21:58:53.240Z,22.73
2022-11-28T22:01:23.188Z,26.10
2022-11-28T22:03:50.407Z,29.08
2022-11-28T22:06:20.165Z,26.90
2022-11-28T22:08:48.908Z,24.33
2022-11-28T22:11:16.654Z,23.42
2022-11-28T22:13:46.673Z,25.30
2022-11-28T22:16:23.779Z,24.73
2022-11-28T22:18:52.830Z,26.20
2022-11-28T22:21:50.680Z,25.35
2022-11-28T22:24:08.239Z,26.25
2022-11-28T22:26:35.490Z,26.60
2022-11-28T22:29:04.295Z,23.58
2022-11-28T22:31:31.946Z,24.27
2022-11-28T22:33:59.038Z,26.05
2022-11-28T22:36:26.058Z,27.48
2022-11-28T22:38:57.954Z,22.17
2022-11-28T22:41:28.902Z,31.00
2022-11-28T22:43:57.768Z,25.98
2022-11-28T22:46:24.808Z,26.23
2022-11-28T22:48:52.177Z,26.23
2022-11-28T22:51:23.991Z,21.90
2022-11-28T22:53:55.597Z,31.23
2022-11-28T22:56:22.686Z,21.23
2022-11-28T22:58:49.720Z,21.83
2022-11-28T23:01:19.578Z,23.42
2022-11-28T23:03:47.772Z,24.55
2022-11-28T23:06:20.819Z,27.90
2022-11-28T23:08:48.691Z,24.02
2022-11-28T23:11:18.786Z,24.92
2022-11-28T23:13:49.781Z,29.95
2022-11-28T23:16:25.161Z,27.05
2022-11-28T23:18:54.585Z,21.23
2022-11-28T23:21:23.308Z,21.58
2022-11-28T23:23:50.392Z,26.67
2022-11-28T23:26:20.467Z,24.42
2022-11-28T23:28:47.541Z,25.13
2022-11-28T23:31:25.674Z,22.83
2022-11-28T23:33:53.050Z,23.23
2022-11-28T23:36:24.271Z,24.05
2022-11-28T23:38:53.996Z,26.73
2022-11-28T23:41:21.259Z,29.05
2022-11-28T23:43:48.358Z,29.92
2022-11-28T23:46:16.704Z,24.38
2022-11-28T23:48:46.419Z,22.08
2022-11-28T23:51:15.602Z,21.08
2022-11-28T23:53:43.444Z,24.58
2022-11-28T23:56:16.051Z,23.92
2022-11-28T23:58:43.403Z,26.35
